Zagreb — 9AA5910 — position and weather

sailwx.info

Track history (hours):
 
Tides and Currents Weather Stations Pressure Air Temp Water Temp Dewpoint Dewpoint Depression Visibility Wind Speed Wind Dir Waves Ship Positions

Zagreb

Last reported at 2015-Apr-19 01:33 UTC. Time now 2015-Apr-19 22:55 UTC.
Position N 60°06' E 027°29'.

Length 229 m; draft 7.7 m.

Type: Cargo ship. MMSI: 238249000.

Date/timePositionNaut miles runAvg speedWind from/ knotsBaromVisibWave heightAir tempDewpointWater temp
2015-Apr-19 01:33N 60°06' E 027°29'1512.6
2015-Apr-19 00:22N 59°58' E 027°03'1113.5
2015-Apr-18 23:33N 59°59' E 026°41'5513.5
2015-Apr-18 19:27N 59°47' E 024°53'1213.2
2015-Apr-18 18:33N 59°44' E 024°30'1513.2
2015-Apr-18 17:24N 59°40' E 024°01'1113.3
2015-Apr-18 16:34N 59°36' E 023°40'39212.6
2015-Apr-17 09:29N 55°18' E 014°31'1212.7
2015-Apr-17 08:33N 55°10' E 014°17'1413.5
2015-Apr-17 07:32N 55°10' E 013°53'1413.6
2015-Apr-17 06:30N 55°11' E 013°28'1313.5
2015-Apr-17 05:32N 55°11' E 013°06'1313.7
2015-Apr-17 04:33N 55°17' E 012°44'1211.7
2015-Apr-17 03:33N 55°28' E 012°41'10 9.8
2015-Apr-17 02:33N 55°38' E 012°42'1111.1
2015-Apr-17 01:33N 55°49' E 012°42'1312.9
2015-Apr-17 00:33N 56°02' E 012°39'1313.5
2015-Apr-16 23:33N 56°11' E 012°21'1413.5
2015-Apr-16 22:33N 56°19' E 012°02'2814.2
2015-Apr-16 20:33N 56°47' E 011°51'1414.3
2015-Apr-16 19:33N 57°00' E 011°41'1414.0
2015-Apr-16 18:33N 57°13' E 011°33'1414.1
2015-Apr-16 17:33N 57°27' E 011°25'1413.9
2015-Apr-16 16:33N 57°37' E 011°06'1413.8
2015-Apr-16 15:34N 57°46' E 010°47'1515.1
2015-Apr-16 14:33N 57°46' E 010°19'16412.2
2015-Apr-16 01:06N 55°44' E 007°00'713.0
2015-Apr-16 00:34N 55°37' E 007°00'1312.9
2015-Apr-15 23:34N 55°24' E 007°00'1313.0
2015-Apr-15 22:34N 55°11' E 006°60'1313.1
2015-Apr-15 21:33N 54°58' E 007°00'1312.9
2015-Apr-15 20:34N 54°45' E 007°00'1212.1
2015-Apr-15 19:34N 54°33' E 007°04'1212.5
2015-Apr-15 18:34N 54°22' E 007°16'1212.1
2015-Apr-15 17:33N 54°12' E 007°28'1212.2
2015-Apr-15 16:33N 54°02' E 007°38'1111.4
2015-Apr-15 15:34N 53°53' E 007°50'1110.9
2015-Apr-15 14:33N 53°49' E 008°07'1313.2
2015-Apr-15 13:33N 53°40' E 008°23'1110.6
2015-Apr-15 12:34N 53°31' E 008°32'1212.4
2015-Apr-15 11:34N 53°18' E 008°30'9 9.1
2015-Apr-15 10:33N 53°10' E 008°37'5 4.5
2015-Apr-15 09:33N 53°07' E 008°42'0 0.2
2015-Apr-15 08:33N 53°07' E 008°43'0 0.3
2015-Apr-15 07:32N 53°07' E 008°43'0 0.0
2015-Apr-15 06:32N 53°07' E 008°43'0 0.0
2015-Apr-15 05:32N 53°07' E 008°43'0 0.0
2015-Apr-15 04:32N 53°07' E 008°43'0 0.0
2015-Apr-15 03:29N 53°07' E 008°43'0 0.0
2015-Apr-15 02:29N 53°07' E 008°43'0 0.0
2015-Apr-15 01:29N 53°07' E 008°43'0 0.0
2015-Apr-15 00:32N 53°07' E 008°43'0 0.0
2015-Apr-14 23:32N 53°07' E 008°43'0 0.0
2015-Apr-14 22:32N 53°07' E 008°43'0 0.0
2015-Apr-14 21:32N 53°07' E 008°43'0 0.0
2015-Apr-14 20:32N 53°07' E 008°43'0 0.0
2015-Apr-14 19:32N 53°07' E 008°43'0 0.0
2015-Apr-14 18:32N 53°07' E 008°43'0 0.0
2015-Apr-14 17:32N 53°07' E 008°43'0 0.0
2015-Apr-14 16:32N 53°07' E 008°43'0 0.0
2015-Apr-14 15:32N 53°07' E 008°43'0 0.0
2015-Apr-14 14:32N 53°07' E 008°43'0 0.0
2015-Apr-14 13:32N 53°07' E 008°43'0 0.0
2015-Apr-14 12:32N 53°07' E 008°43'0 0.0
2015-Apr-14 11:32N 53°07' E 008°43'0 0.0
2015-Apr-14 10:32N 53°07' E 008°43'0 0.0
2015-Apr-14 09:32N 53°07' E 008°43'0 0.0
2015-Apr-14 08:32N 53°07' E 008°43'0 0.0
2015-Apr-14 07:32N 53°07' E 008°43'0 0.0
2015-Apr-14 06:32N 53°07' E 008°43'0 0.0
2015-Apr-14 05:32N 53°07' E 008°43'0 0.0
2015-Apr-14 04:32N 53°07' E 008°43'0 0.0
2015-Apr-14 03:32N 53°07' E 008°43'0 0.0
2015-Apr-14 02:32N 53°07' E 008°43'0 0.0
2015-Apr-14 01:32N 53°07' E 008°43'0 0.0
2015-Apr-14 00:32N 53°07' E 008°43'0 0.0
2015-Apr-13 23:32N 53°07' E 008°43'0 0.0
2015-Apr-13 22:32N 53°07' E 008°43'0 0.0
2015-Apr-13 21:32N 53°07' E 008°43'0 0.0
2015-Apr-13 20:32N 53°07' E 008°43'0 0.0
2015-Apr-13 19:32N 53°07' E 008°43'0 0.0
2015-Apr-13 18:32N 53°07' E 008°43'0 0.0
2015-Apr-13 17:32N 53°07' E 008°43'0 0.0
2015-Apr-13 16:32N 53°07' E 008°43'0 0.0
2015-Apr-13 15:32N 53°07' E 008°43'0 0.0
2015-Apr-13 14:32N 53°07' E 008°43'0 0.0
2015-Apr-13 13:32N 53°07' E 008°43'0 0.0
2015-Apr-13 12:32N 53°07' E 008°43'0 0.0
2015-Apr-13 11:32N 53°07' E 008°43'0 0.0
2015-Apr-13 10:32N 53°07' E 008°43'0 0.0
2015-Apr-13 09:32N 53°08' E 008°43'0 0.0
2015-Apr-13 08:32N 53°08' E 008°43'0 0.0
2015-Apr-13 07:32N 53°08' E 008°43'0 0.0
2015-Apr-13 06:32N 53°08' E 008°43'0 0.0
2015-Apr-13 05:32N 53°07' E 008°43'0 0.0
2015-Apr-13 04:32N 53°07' E 008°43'0 0.0
2015-Apr-13 03:32N 53°07' E 008°43'0 0.0
2015-Apr-13 02:32N 53°07' E 008°43'0 0.0
2015-Apr-13 01:32N 53°07' E 008°43'0 0.0
2015-Apr-13 00:32N 53°07' E 008°43'0 0.0
2015-Apr-12 23:32N 53°07' E 008°43'0 0.0
2015-Apr-12 22:32N 53°07' E 008°43'0 0.0
2015-Apr-12 21:32N 53°07' E 008°43'0 0.0
2015-Apr-12 20:32N 53°07' E 008°43'0 0.0
2015-Apr-12 19:32N 53°07' E 008°43'0 0.0
2015-Apr-12 18:32N 53°07' E 008°43'0 0.0
2015-Apr-12 17:32N 53°07' E 008°43'0 0.0
2015-Apr-12 16:32N 53°07' E 008°43'0 0.0
2015-Apr-12 15:32N 53°07' E 008°43'0 0.0
2015-Apr-12 14:32N 53°07' E 008°43'0 0.0
2015-Apr-12 13:32N 53°07' E 008°43'0 0.0
2015-Apr-12 12:32N 53°07' E 008°43'0 0.0
2015-Apr-12 11:32N 53°07' E 008°43'0 0.0
2015-Apr-12 10:32N 53°07' E 008°43'0 0.0
2015-Apr-12 09:32N 53°07' E 008°43'0 0.0
2015-Apr-12 08:32N 53°07' E 008°43'0 0.0
2015-Apr-12 07:32N 53°07' E 008°43'0 0.0
2015-Apr-12 06:32N 53°07' E 008°43'0 0.0
2015-Apr-12 05:32N 53°07' E 008°43'0 0.0
2015-Apr-12 04:32N 53°07' E 008°43'0 0.0
2015-Apr-12 03:32N 53°07' E 008°43'0 0.0
2015-Apr-12 02:32N 53°07' E 008°43'0 0.0
2015-Apr-12 01:32N 53°07' E 008°43'0 0.0
2015-Apr-12 00:32N 53°07' E 008°43'0 0.0
2015-Apr-11 23:32N 53°07' E 008°43'0 0.0
2015-Apr-11 22:32N 53°07' E 008°43'0 0.0
2015-Apr-11 21:32N 53°07' E 008°43'0 0.0
2015-Apr-11 20:32N 53°07' E 008°43'0 0.0
2015-Apr-11 19:32N 53°08' E 008°43'0 0.0
2015-Apr-11 18:32N 53°08' E 008°43'0 0.0
2015-Apr-11 17:32N 53°08' E 008°43'0 0.0
2015-Apr-11 16:32N 53°08' E 008°43'0 0.0
2015-Apr-11 15:32N 53°07' E 008°43'0 0.0
2015-Apr-11 14:32N 53°07' E 008°43'0 0.0
2015-Apr-11 13:32N 53°07' E 008°43'0 0.0
2015-Apr-11 12:32N 53°07' E 008°43'0 0.0
2015-Apr-11 11:32N 53°07' E 008°43'0 0.0
2015-Apr-11 10:32N 53°07' E 008°43'0 0.0
2015-Apr-11 09:32N 53°07' E 008°43'0 0.0
2015-Apr-11 08:32N 53°07' E 008°43'0 0.0
2015-Apr-11 07:32N 53°07' E 008°43'0 0.0
2015-Apr-11 06:32N 53°07' E 008°43'0 0.0
2015-Apr-11 05:32N 53°07' E 008°43'0 0.0
2015-Apr-11 04:32N 53°07' E 008°43'0 0.0
2015-Apr-11 03:32N 53°07' E 008°43'0 0.0
2015-Apr-11 02:32N 53°07' E 008°43'0 0.0
2015-Apr-11 01:32N 53°07' E 008°43'0 0.0
2015-Apr-11 00:32N 53°07' E 008°43'0 0.0
2015-Apr-10 23:32N 53°07' E 008°43'0 0.0
2015-Apr-10 22:32N 53°08' E 008°43'0 0.0
2015-Apr-10 21:32N 53°07' E 008°43'0 0.0
2015-Apr-10 20:32N 53°07' E 008°43'0 0.0
2015-Apr-10 19:32N 53°07' E 008°43'0 0.0
2015-Apr-10 18:32N 53°07' E 008°43'0 0.0
2015-Apr-10 17:32N 53°07' E 008°43'0 0.0
2015-Apr-10 16:32N 53°07' E 008°43'0 0.0
2015-Apr-10 15:32N 53°08' E 008°43'0 0.0
2015-Apr-10 14:32N 53°07' E 008°43'0 0.0
2015-Apr-10 13:32N 53°07' E 008°43'0 0.0
2015-Apr-10 12:32N 53°07' E 008°43'0 0.0
2015-Apr-10 11:32N 53°07' E 008°43'0 0.0
2015-Apr-10 10:32N 53°07' E 008°43'0 0.0
2015-Apr-10 09:32N 53°07' E 008°43'0 0.0
2015-Apr-10 08:32N 53°07' E 008°43'0 0.0
2015-Apr-10 07:32N 53°07' E 008°43'0 0.0
2015-Apr-10 06:32N 53°08' E 008°43'0 0.0
2015-Apr-10 05:32N 53°07' E 008°43'0 0.0
2015-Apr-10 04:32N 53°07' E 008°43'0 0.0
2015-Apr-10 03:32N 53°07' E 008°43'0 0.0
2015-Apr-10 02:31N 53°07' E 008°43'0 0.0
2015-Apr-10 01:31N 53°07' E 008°43'0 0.0
2015-Apr-10 00:31N 53°07' E 008°43'0 0.0
2015-Apr-09 23:31N 53°07' E 008°43'0 0.0
2015-Apr-09 22:31N 53°07' E 008°43'0 0.0
2015-Apr-09 21:31N 53°07' E 008°43'0 0.0
2015-Apr-09 20:31N 53°07' E 008°43'0 0.0
2015-Apr-09 19:31N 53°07' E 008°43'0 0.0
2015-Apr-09 18:31N 53°07' E 008°43'0 0.0
2015-Apr-09 17:31N 53°07' E 008°43'0 0.0
2015-Apr-09 16:31N 53°07' E 008°43'0 0.0
2015-Apr-09 15:31N 53°07' E 008°43'0 0.0
2015-Apr-09 14:31N 53°07' E 008°43'0 0.0
2015-Apr-09 13:31N 53°07' E 008°43'0 0.0
2015-Apr-09 12:31N 53°07' E 008°43'0 0.0
2015-Apr-09 11:31N 53°07' E 008°43'0 0.0
2015-Apr-09 10:31N 53°07' E 008°43'0 0.0
2015-Apr-09 09:31N 53°07' E 008°43'0 0.0
2015-Apr-09 08:31N 53°07' E 008°43'0 0.0
2015-Apr-09 07:31N 53°07' E 008°43'0 0.0
2015-Apr-09 06:31N 53°07' E 008°43'0 0.2
2015-Apr-09 05:33N 53°07' E 008°43'0 0.2
2015-Apr-09 04:33N 53°07' E 008°43'3 2.6
2015-Apr-09 03:33N 53°08' E 008°38'9 8.7
2015-Apr-09 02:33N 53°14' E 008°29'  
Track history (hours):
 
Tides and Currents Weather Stations Pressure Air Temp Water Temp Dewpoint Dewpoint Depression Visibility Wind Speed Wind Dir Waves Ship Positions

Zagreb

Last reported at 2015-Apr-19 01:33 UTC. Time now 2015-Apr-19 22:55 UTC.
Position N 60°06' E 027°29'.

Length 229 m; draft 7.7 m.

Type: Cargo ship. MMSI: 238249000.

Date/timePositionNaut miles runAvg speedWind from/ knotsBaromVisibWave heightAir tempDewpointWater temp
2015-Apr-19 01:33N 60°06' E 027°29'1512.6
2015-Apr-19 00:22N 59°58' E 027°03'1113.5
2015-Apr-18 23:33N 59°59' E 026°41'5513.5
2015-Apr-18 19:27N 59°47' E 024°53'1213.2
2015-Apr-18 18:33N 59°44' E 024°30'1513.2
2015-Apr-18 17:24N 59°40' E 024°01'1113.3
2015-Apr-18 16:34N 59°36' E 023°40'39212.6
2015-Apr-17 09:29N 55°18' E 014°31'1212.7
2015-Apr-17 08:33N 55°10' E 014°17'1413.5
2015-Apr-17 07:32N 55°10' E 013°53'1413.6
2015-Apr-17 06:30N 55°11' E 013°28'1313.5
2015-Apr-17 05:32N 55°11' E 013°06'1313.7
2015-Apr-17 04:33N 55°17' E 012°44'1211.7
2015-Apr-17 03:33N 55°28' E 012°41'10 9.8
2015-Apr-17 02:33N 55°38' E 012°42'1111.1
2015-Apr-17 01:33N 55°49' E 012°42'1312.9
2015-Apr-17 00:33N 56°02' E 012°39'1313.5
2015-Apr-16 23:33N 56°11' E 012°21'1413.5
2015-Apr-16 22:33N 56°19' E 012°02'2814.2
2015-Apr-16 20:33N 56°47' E 011°51'1414.3
2015-Apr-16 19:33N 57°00' E 011°41'1414.0
2015-Apr-16 18:33N 57°13' E 011°33'1414.1
2015-Apr-16 17:33N 57°27' E 011°25'1413.9
2015-Apr-16 16:33N 57°37' E 011°06'1413.8
2015-Apr-16 15:34N 57°46' E 010°47'1515.1
2015-Apr-16 14:33N 57°46' E 010°19'16412.2
2015-Apr-16 01:06N 55°44' E 007°00'713.0
2015-Apr-16 00:34N 55°37' E 007°00'1312.9
2015-Apr-15 23:34N 55°24' E 007°00'1313.0
2015-Apr-15 22:34N 55°11' E 006°60'1313.1
2015-Apr-15 21:33N 54°58' E 007°00'1312.9
2015-Apr-15 20:34N 54°45' E 007°00'1212.1
2015-Apr-15 19:34N 54°33' E 007°04'1212.5
2015-Apr-15 18:34N 54°22' E 007°16'1212.1
2015-Apr-15 17:33N 54°12' E 007°28'1212.2
2015-Apr-15 16:33N 54°02' E 007°38'1111.4
2015-Apr-15 15:34N 53°53' E 007°50'1110.9
2015-Apr-15 14:33N 53°49' E 008°07'1313.2
2015-Apr-15 13:33N 53°40' E 008°23'1110.6
2015-Apr-15 12:34N 53°31' E 008°32'1212.4
2015-Apr-15 11:34N 53°18' E 008°30'9 9.1
2015-Apr-15 10:33N 53°10' E 008°37'5 4.5
2015-Apr-15 09:33N 53°07' E 008°42'0 0.2
2015-Apr-15 08:33N 53°07' E 008°43'0 0.3
2015-Apr-15 07:32N 53°07' E 008°43'0 0.0
2015-Apr-15 06:32N 53°07' E 008°43'0 0.0
2015-Apr-15 05:32N 53°07' E 008°43'0 0.0
2015-Apr-15 04:32N 53°07' E 008°43'0 0.0
2015-Apr-15 03:29N 53°07' E 008°43'0 0.0
2015-Apr-15 02:29N 53°07' E 008°43'0 0.0
2015-Apr-15 01:29N 53°07' E 008°43'0 0.0
2015-Apr-15 00:32N 53°07' E 008°43'0 0.0
2015-Apr-14 23:32N 53°07' E 008°43'0 0.0
2015-Apr-14 22:32N 53°07' E 008°43'0 0.0
2015-Apr-14 21:32N 53°07' E 008°43'0 0.0
2015-Apr-14 20:32N 53°07' E 008°43'0 0.0
2015-Apr-14 19:32N 53°07' E 008°43'0 0.0
2015-Apr-14 18:32N 53°07' E 008°43'0 0.0
2015-Apr-14 17:32N 53°07' E 008°43'0 0.0
2015-Apr-14 16:32N 53°07' E 008°43'0 0.0
2015-Apr-14 15:32N 53°07' E 008°43'0 0.0
2015-Apr-14 14:32N 53°07' E 008°43'0 0.0
2015-Apr-14 13:32N 53°07' E 008°43'0 0.0
2015-Apr-14 12:32N 53°07' E 008°43'0 0.0
2015-Apr-14 11:32N 53°07' E 008°43'0 0.0
2015-Apr-14 10:32N 53°07' E 008°43'0 0.0
2015-Apr-14 09:32N 53°07' E 008°43'0 0.0
2015-Apr-14 08:32N 53°07' E 008°43'0 0.0
2015-Apr-14 07:32N 53°07' E 008°43'0 0.0
2015-Apr-14 06:32N 53°07' E 008°43'0 0.0
2015-Apr-14 05:32N 53°07' E 008°43'0 0.0
2015-Apr-14 04:32N 53°07' E 008°43'0 0.0
2015-Apr-14 03:32N 53°07' E 008°43'0 0.0
2015-Apr-14 02:32N 53°07' E 008°43'0 0.0
2015-Apr-14 01:32N 53°07' E 008°43'0 0.0
2015-Apr-14 00:32N 53°07' E 008°43'0 0.0
2015-Apr-13 23:32N 53°07' E 008°43'0 0.0
2015-Apr-13 22:32N 53°07' E 008°43'0 0.0
2015-Apr-13 21:32N 53°07' E 008°43'0 0.0
2015-Apr-13 20:32N 53°07' E 008°43'0 0.0
2015-Apr-13 19:32N 53°07' E 008°43'0 0.0
2015-Apr-13 18:32N 53°07' E 008°43'0 0.0
2015-Apr-13 17:32N 53°07' E 008°43'0 0.0
2015-Apr-13 16:32N 53°07' E 008°43'0 0.0
2015-Apr-13 15:32N 53°07' E 008°43'0 0.0
2015-Apr-13 14:32N 53°07' E 008°43'0 0.0
2015-Apr-13 13:32N 53°07' E 008°43'0 0.0
2015-Apr-13 12:32N 53°07' E 008°43'0 0.0
2015-Apr-13 11:32N 53°07' E 008°43'0 0.0
2015-Apr-13 10:32N 53°07' E 008°43'0 0.0
2015-Apr-13 09:32N 53°08' E 008°43'0 0.0
2015-Apr-13 08:32N 53°08' E 008°43'0 0.0
2015-Apr-13 07:32N 53°08' E 008°43'0 0.0
2015-Apr-13 06:32N 53°08' E 008°43'0 0.0
2015-Apr-13 05:32N 53°07' E 008°43'0 0.0
2015-Apr-13 04:32N 53°07' E 008°43'0 0.0
2015-Apr-13 03:32N 53°07' E 008°43'0 0.0
2015-Apr-13 02:32N 53°07' E 008°43'0 0.0
2015-Apr-13 01:32N 53°07' E 008°43'0 0.0
2015-Apr-13 00:32N 53°07' E 008°43'0 0.0
2015-Apr-12 23:32N 53°07' E 008°43'0 0.0
2015-Apr-12 22:32N 53°07' E 008°43'0 0.0
2015-Apr-12 21:32N 53°07' E 008°43'0 0.0
2015-Apr-12 20:32N 53°07' E 008°43'0 0.0
2015-Apr-12 19:32N 53°07' E 008°43'0 0.0
2015-Apr-12 18:32N 53°07' E 008°43'0 0.0
2015-Apr-12 17:32N 53°07' E 008°43'0 0.0
2015-Apr-12 16:32N 53°07' E 008°43'0 0.0
2015-Apr-12 15:32N 53°07' E 008°43'0 0.0
2015-Apr-12 14:32N 53°07' E 008°43'0 0.0
2015-Apr-12 13:32N 53°07' E 008°43'0 0.0
2015-Apr-12 12:32N 53°07' E 008°43'0 0.0
2015-Apr-12 11:32N 53°07' E 008°43'0 0.0
2015-Apr-12 10:32N 53°07' E 008°43'0 0.0
2015-Apr-12 09:32N 53°07' E 008°43'0 0.0
2015-Apr-12 08:32N 53°07' E 008°43'0 0.0
2015-Apr-12 07:32N 53°07' E 008°43'0 0.0
2015-Apr-12 06:32N 53°07' E 008°43'0 0.0
2015-Apr-12 05:32N 53°07' E 008°43'0 0.0
2015-Apr-12 04:32N 53°07' E 008°43'0 0.0
2015-Apr-12 03:32N 53°07' E 008°43'0 0.0
2015-Apr-12 02:32N 53°07' E 008°43'0 0.0
2015-Apr-12 01:32N 53°07' E 008°43'0 0.0
2015-Apr-12 00:32N 53°07' E 008°43'0 0.0
2015-Apr-11 23:32N 53°07' E 008°43'0 0.0
2015-Apr-11 22:32N 53°07' E 008°43'0 0.0
2015-Apr-11 21:32N 53°07' E 008°43'0 0.0
2015-Apr-11 20:32N 53°07' E 008°43'0 0.0
2015-Apr-11 19:32N 53°08' E 008°43'0 0.0
2015-Apr-11 18:32N 53°08' E 008°43'0 0.0
2015-Apr-11 17:32N 53°08' E 008°43'0 0.0
2015-Apr-11 16:32N 53°08' E 008°43'0 0.0
2015-Apr-11 15:32N 53°07' E 008°43'0 0.0
2015-Apr-11 14:32N 53°07' E 008°43'0 0.0
2015-Apr-11 13:32N 53°07' E 008°43'0 0.0
2015-Apr-11 12:32N 53°07' E 008°43'0 0.0
2015-Apr-11 11:32N 53°07' E 008°43'0 0.0
2015-Apr-11 10:32N 53°07' E 008°43'0 0.0
2015-Apr-11 09:32N 53°07' E 008°43'0 0.0
2015-Apr-11 08:32N 53°07' E 008°43'0 0.0
2015-Apr-11 07:32N 53°07' E 008°43'0 0.0
2015-Apr-11 06:32N 53°07' E 008°43'0 0.0
2015-Apr-11 05:32N 53°07' E 008°43'0 0.0
2015-Apr-11 04:32N 53°07' E 008°43'0 0.0
2015-Apr-11 03:32N 53°07' E 008°43'0 0.0
2015-Apr-11 02:32N 53°07' E 008°43'0 0.0
2015-Apr-11 01:32N 53°07' E 008°43'0 0.0
2015-Apr-11 00:32N 53°07' E 008°43'0 0.0
2015-Apr-10 23:32N 53°07' E 008°43'0 0.0
2015-Apr-10 22:32N 53°08' E 008°43'0 0.0
2015-Apr-10 21:32N 53°07' E 008°43'0 0.0
2015-Apr-10 20:32N 53°07' E 008°43'0 0.0
2015-Apr-10 19:32N 53°07' E 008°43'0 0.0
2015-Apr-10 18:32N 53°07' E 008°43'0 0.0
2015-Apr-10 17:32N 53°07' E 008°43'0 0.0
2015-Apr-10 16:32N 53°07' E 008°43'0 0.0
2015-Apr-10 15:32N 53°08' E 008°43'0 0.0
2015-Apr-10 14:32N 53°07' E 008°43'0 0.0
2015-Apr-10 13:32N 53°07' E 008°43'0 0.0
2015-Apr-10 12:32N 53°07' E 008°43'0 0.0
2015-Apr-10 11:32N 53°07' E 008°43'0 0.0
2015-Apr-10 10:32N 53°07' E 008°43'0 0.0
2015-Apr-10 09:32N 53°07' E 008°43'0 0.0
2015-Apr-10 08:32N 53°07' E 008°43'0 0.0
2015-Apr-10 07:32N 53°07' E 008°43'0 0.0
2015-Apr-10 06:32N 53°08' E 008°43'0 0.0
2015-Apr-10 05:32N 53°07' E 008°43'0 0.0
2015-Apr-10 04:32N 53°07' E 008°43'0 0.0
2015-Apr-10 03:32N 53°07' E 008°43'0 0.0
2015-Apr-10 02:31N 53°07' E 008°43'0 0.0
2015-Apr-10 01:31N 53°07' E 008°43'0 0.0
2015-Apr-10 00:31N 53°07' E 008°43'0 0.0
2015-Apr-09 23:31N 53°07' E 008°43'0 0.0
2015-Apr-09 22:31N 53°07' E 008°43'0 0.0
2015-Apr-09 21:31N 53°07' E 008°43'0 0.0
2015-Apr-09 20:31N 53°07' E 008°43'0 0.0
2015-Apr-09 19:31N 53°07' E 008°43'0 0.0
2015-Apr-09 18:31N 53°07' E 008°43'0 0.0
2015-Apr-09 17:31N 53°07' E 008°43'0 0.0
2015-Apr-09 16:31N 53°07' E 008°43'0 0.0
2015-Apr-09 15:31N 53°07' E 008°43'0 0.0
2015-Apr-09 14:31N 53°07' E 008°43'0 0.0
2015-Apr-09 13:31N 53°07' E 008°43'0 0.0
2015-Apr-09 12:31N 53°07' E 008°43'0 0.0
2015-Apr-09 11:31N 53°07' E 008°43'0 0.0
2015-Apr-09 10:31N 53°07' E 008°43'0 0.0
2015-Apr-09 09:31N 53°07' E 008°43'0 0.0
2015-Apr-09 08:31N 53°07' E 008°43'0 0.0
2015-Apr-09 07:31N 53°07' E 008°43'0 0.0
2015-Apr-09 06:31N 53°07' E 008°43'0 0.2
2015-Apr-09 05:33N 53°07' E 008°43'0 0.2
2015-Apr-09 04:33N 53°07' E 008°43'3 2.6
2015-Apr-09 03:33N 53°08' E 008°38'9 8.7
2015-Apr-09 02:33N 53°14' E 008°29'  

Dump ship's entire track history